• Join FlightAware (Why Join?)
  • Login
  • US Flag 
01:25AM EDT


 

Airport Tracker/Info


-or-


 

Live Flight TrackerFlight Track Log ✈ N177LF ✈ 18-Aug-2013 ✈ KLNN - KPWK

Flight Track Log - Related Links

Times and Time Zones

All times are in EDT time to prevent confusion due to time zone crossing. See the N177LF flight status page for this flight to view local times or setup timezone preferences in your user account.

Time Position Orientation Groundspeed Altitude Reporting Facility
EDT Latitude Longitude Course Direction KTS MPH feet Rate Location/Type
03:46PM 41.7003 -81.4397 270° West 89 102 1,900  Level Cleveland Center
03:47PM 41.7003 -81.4647 270° West 89 102 2,300 420 Climbing Cleveland Center
03:48PM 41.7000 -81.4953 269° West 90 104 2,700 420 Climbing Cleveland Center
03:49PM 41.7039 -81.5317 278° West 93 107 3,200 420 Climbing Cleveland Center
03:50PM 41.7014 -81.5678 265° West 88 101 3,600 360 Climbing Cleveland Center
03:51PM 41.6992 -81.5925 263° West 90 104 3,900 180 Climbing Cleveland Center
03:52PM 41.7028 -81.6372 276° West 110 127 4,000 60 Climbing Cleveland Center
03:53PM 41.7108 -81.6847 283° West 127 146 4,100  Climbing Cleveland Center
03:54PM 41.7167 -81.7319 279° West 138 159 4,000 60 Descending Cleveland Center
03:55PM 41.7264 -81.7767 286° West 130 150 4,300 360 Climbing Cleveland Center
03:56PM 41.7344 -81.8186 284° West 114 131 4,800 420 Climbing Cleveland Center
03:57PM 41.7381 -81.8631 276° West 109 125 5,200 360 Climbing Cleveland Center
03:58PM 41.7397 -81.9022 273° West 110 127 5,600 360 Climbing Cleveland Center
03:59PM 41.7433 -81.9439 277° West 109 125 6,000 240 Climbing Cleveland Center
04:00PM 41.7389 -81.9828 261° West 113 130 6,100  Climbing Cleveland Center
04:01PM 41.7403 -82.0303 272° West 134 154 6,100 -60 Level Cleveland Center
04:02PM 41.7481 -82.0778 282° West 145 167 6,000 -180 Descending Cleveland Center
04:03PM 41.7536 -82.1306 278° West 135 155 5,800 -120 Descending Cleveland Center
04:04PM 41.7550 -82.1753 272° West 134 154 5,800  Level Cleveland Center
04:05PM 41.7586 -82.2228 276° West 127 146 5,900 60 Climbing Cleveland Center
04:06PM 41.7639 -82.2786 277° West 123 142 6,000  Climbing Cleveland Center
04:07PM 41.7678 -82.3008 283° West 125 144 6,000  Level Cleveland Center
04:08PM 41.7753 -82.3650 279° West 127 146 6,000  Level Cleveland Center
04:09PM 41.7786 -82.4097 276° West 130 150 6,000  Level Cleveland Center
04:10PM 41.7842 -82.4600 278° West 129 148 6,100  Climbing Cleveland Center
04:11PM 41.7853 -82.5075 272° West 130 150 6,100  Level Cleveland Center
04:12PM 41.7886 -82.5578 275° West 131 151 6,100  Level Cleveland Center
04:13PM 41.7942 -82.6053 279° West 131 151 6,200  Climbing Cleveland Center
04:14PM 41.7994 -82.6583 278° West 133 153 6,200  Level Cleveland Center
04:15PM 41.8047 -82.7114 278° West 132 152 6,200  Level Cleveland Center
04:16PM 41.8058 -82.7561 272° West 131 151 6,200 -60 Level Cleveland Center
04:17PM 41.8111 -82.8092 278° West 137 158 6,100 -60 Descending Cleveland Center
04:18PM 41.8144 -82.8594 275° West 136 157 6,100  Level Cleveland Center
04:19PM 41.8194 -82.9125 277° West 135 155 6,100  Level Cleveland Center
04:21PM 41.8247 -82.9683 277° West 134 154 6,100 -60 Level Cleveland Center
04:22PM 41.8278 -83.0131 275° West 135 155 6,000 -60 Descending Cleveland Center
04:23PM 41.8308 -83.0661 274° West 133 153 6,000  Level Cleveland Center
04:24PM 41.8339 -83.1192 274° West 132 152 6,000  Level Cleveland Center
04:25PM 41.8414 -83.1614 283° West 132 152 6,000 -60 Level Cleveland Center
04:26PM 41.8444 -83.2117 275° West 135 155 5,900  Descending Cleveland Center
04:27PM 41.8472 -83.2675 274° West 133 153 6,000  Climbing Cleveland Center
04:28PM 41.8522 -83.3181 278° West 132 152 6,000 -60 Level Cleveland Center
04:29PM 41.8553 -83.3683 275° West 134 154 5,900 -60 Descending Cleveland Center
04:30PM 41.8603 -83.4186 278° West 136 157 5,900  Level Cleveland Center
04:31PM 41.8631 -83.4689 274° West 132 152 6,000  Climbing Cleveland Center
04:32PM 41.8661 -83.5219 274° West 131 151 6,000  Level Cleveland Center
04:34PM 41.8775 -83.5994 281° West 132 152 6,000  Level Chicago Center
04:35PM 41.8808 -83.6475 275° West 131 151 6,000  Level Chicago Center
04:36PM 41.8856 -83.7053 276° West 130 150 6,000  Level Chicago Center
04:37PM 41.8881 -83.7528 274° West 129 148 6,100  Climbing Chicago Center
04:38PM 41.8917 -83.8014 276° West 130 150 6,100  Level Chicago Center
04:39PM 41.8947 -83.8508 275° West 132 152 6,100  Level Chicago Center
04:40PM 41.8992 -83.9000 277° West 132 152 6,100  Level Chicago Center
04:41PM 41.9036 -83.9594 276° West 133 153 6,100  Level Chicago Center
04:42PM 41.9067 -84.0083 275° West 133 153 6,100  Level Chicago Center
04:43PM 41.9103 -84.0572 276° West 133 153 6,200 60 Climbing Chicago Center
04:44PM 41.9133 -84.1047 275° West 131 151 6,300 180 Climbing Chicago Center
04:45PM 41.9147 -84.1483 272° West 125 144 6,600 240 Climbing Chicago Center
04:46PM 41.9181 -84.1878 276° West 116 133 6,900 300 Climbing Chicago Center
04:47PM 41.9228 -84.2367 277° West 111 128 7,300 240 Climbing Chicago Center
04:48PM 41.9236 -84.2767 272° West 109 125 7,500 240 Climbing Chicago Center
04:49PM 41.9250 -84.3164 273° West 108 124 7,800 240 Climbing Chicago Center
04:50PM 41.9278 -84.3589 275° West 112 129 8,000 120 Climbing Chicago Center
04:51PM 41.9311 -84.4022 276° West 116 133 8,100 60 Climbing Chicago Center
04:52PM 41.9347 -84.4481 276° West 122 140 8,200  Climbing Chicago Center
04:53PM 41.9394 -84.5039 277° West 125 144 8,200  Level Chicago Center
04:54PM 41.9425 -84.5522 275° West 129 148 8,200  Level Chicago Center
04:55PM 41.9456 -84.6008 275° West 131 151 8,200  Level Chicago Center
04:56PM 41.9486 -84.6506 275° West 133 153 8,200  Level Chicago Center
04:57PM 41.9531 -84.6983 277° West 132 152 8,200  Level Chicago Center
04:58PM 41.9564 -84.7572 274° West 132 152 8,200 -60 Level Chicago Center
05:00PM 41.9600 -84.8050 276° West 131 151 8,100 -60 Descending Chicago Center
05:01PM 41.9631 -84.8544 275° West 133 153 8,100  Level Chicago Center
05:02PM 41.9661 -84.9036 275° West 133 153 8,100  Level Chicago Center
05:03PM 41.9689 -84.9533 274° West 134 154 8,100  Level Chicago Center
05:04PM 41.9722 -85.0025 275° West 134 154 8,100  Level Chicago Center
05:05PM 41.9756 -85.0628 274° West 135 155 8,100 -60 Level Chicago Center
05:06PM 41.9797 -85.1119 277° West 136 157 8,000  Descending Chicago Center
05:07PM 41.9822 -85.1614 274° West 134 154 8,100  Climbing Chicago Center
05:08PM 41.9850 -85.2103 274° West 133 153 8,000 -60 Descending Chicago Center
05:09PM 41.9883 -85.2603 275° West 135 155 8,000  Level Chicago Center
05:10PM 41.9917 -85.3186 274° West 132 152 8,000  Level Chicago Center
05:11PM 41.9942 -85.3678 274° West 132 152 8,000  Level Chicago Center
05:12PM 41.9975 -85.4158 275° West 131 151 8,000  Level Chicago Center
05:13PM 42.0011 -85.4644 276° West 132 152 8,000  Level Chicago Center
05:14PM 42.0022 -85.5128 272° West 131 151 8,000  Level Chicago Center
05:15PM 42.0061 -85.5708 275° West 131 151 8,000  Level Chicago Center
05:16PM 42.0094 -85.6192 275° West 131 151 8,000  Level Chicago Center
05:17PM 42.0156 -85.6681 280° West 132 152 8,000  Level Chicago Center
05:18PM 42.0231 -85.7158 282° West 132 152 8,000  Level Chicago Center
05:19PM 42.0275 -85.7642 277° West 131 151 8,000  Level Chicago Center
05:20PM 42.0344 -85.8131 281° West 133 153 8,000  Level Chicago Center
05:21PM 42.0400 -85.8711 277° West 131 151 8,000  Level Chicago Center
05:22PM 42.0456 -85.9186 279° West 130 150 8,100  Climbing Chicago Center
05:23PM 42.0511 -85.9667 279° West 129 148 8,000  Descending Chicago Center
05:24PM 42.0561 -86.0131 278° West 128 147 8,100  Climbing Chicago Center
05:25PM 42.0619 -86.0597 280° West 127 146 8,000  Descending Chicago Center
05:26PM 42.0683 -86.1164 279° West 128 147 8,100  Climbing Chicago Center
05:27PM 42.0725 -86.1622 277° West 125 144 8,000 -60 Descending Chicago Center
05:28PM 42.0783 -86.2097 279° West 127 146 8,000  Level Chicago Center
05:30PM 42.0836 -86.2564 279° West 128 147 8,000  Level Chicago Center
05:31PM 42.0894 -86.3056 279° West 131 151 8,000  Level Chicago Center
05:32PM 42.0939 -86.3522 277° West 129 148 8,000 -180 Level Chicago Center
05:33PM 42.1014 -86.4117 280° West 133 153 7,700 -420 Descending Chicago Center
05:34PM 42.1069 -86.4622 278° West 136 157 7,200 -540 Descending Chicago Center
05:35PM 42.1131 -86.5131 279° West 138 159 6,700 -540 Descending Chicago Center
05:36PM 42.1181 -86.5642 278° West 137 158 6,200 -540 Descending Chicago Center
05:37PM 42.1231 -86.6156 277° West 139 160 5,700 -480 Descending Chicago Center
05:38PM 42.1283 -86.6664 278° West 139 160 5,200 -540 Descending Chicago Center
05:39PM 42.1353 -86.7267 279° West 136 157 4,600 -540 Descending Chicago Center
05:40PM 42.1400 -86.7772 277° West 136 157 4,200 -300 Descending Chicago Center
05:41PM 42.1444 -86.8269 277° West 135 155 4,000 -120 Descending Chicago Center
05:42PM 42.1497 -86.8736 279° West 129 148 4,000  Level Chicago Center
05:43PM 42.1558 -86.9217 280° West 129 148 4,000  Level Chicago Center
05:44PM 42.1603 -86.9775 276° West 126 145 4,000  Level Chicago Center
05:45PM 42.1625 -87.0250 274° West 128 147 4,000  Level Chicago Center
05:46PM 42.1661 -87.0664 277° West 124 143 4,000 -60 Level Chicago Center
05:47PM 42.1700 -87.1122 277° West 123 142 3,900  Descending Chicago Center
05:48PM 42.1728 -87.1672 274° West 124 143 4,000  Climbing Chicago Center
05:49PM 42.1758 -87.2128 275° West 123 142 4,000  Level Chicago Center
05:50PM 42.1775 -87.2572 273° West 121 139 4,000 -120 Level Chicago Center
05:51PM 42.1806 -87.3031 275° West 123 142 3,800 -420 Descending Chicago Center
05:52PM 42.1842 -87.3592 275° West 124 143 3,200 -420 Descending Chicago Center
05:53PM 42.1875 -87.4075 275° West 128 147 3,000 -120 Descending Chicago Center
05:54PM 42.1908 -87.4558 275° West 129 148 3,000  Level Chicago Center
05:55PM 42.1936 -87.5033 275° West 128 147 3,000  Level Chicago Center
05:56PM 42.1967 -87.5483 275° West 125 144 3,000  Level Chicago Center
05:57PM 42.1997 -87.6042 274° West 125 144 3,000 -120 Level Chicago Center
05:58PM 42.2008 -87.6500 272° West 124 143 2,800 -240 Descending Chicago Center
06:00PM 42.2025 -87.6964 273° West 124 143 2,600 -300 Descending Chicago Center
06:01PM 42.2031 -87.7439 271° West 126 145 2,200 -360 Descending Chicago Center
06:02PM 42.2039 -87.7956 271° West 128 147 1,900 -240 Descending Chicago Center
06:03PM 42.1967 -87.8464 259° West 126 145 1,800 -60 Descending Chicago Center
06:04PM 42.1942 -87.8853 265° West 125 144 1,800 -180 Level Chicago Center
06:06PM 42.1500 -87.9167 208° Southwest 100 115 1,300 -300 Descending Chicago TRACON
06:07PM 42.1333 -87.9167 180° South 86 99 900 -420 Descending Chicago TRACON